createdAt,value
2019-03-12T00:00:20.358Z,0
2019-03-12T00:01:20.981Z,0
2019-03-12T00:02:20.917Z,0
2019-03-12T00:03:20.939Z,0
2019-03-12T00:04:20.680Z,0
2019-03-12T00:05:20.429Z,0
2019-03-12T00:06:20.722Z,0
2019-03-12T00:07:20.999Z,0
2019-03-12T00:08:20.225Z,0
2019-03-12T00:09:20.859Z,0
2019-03-12T00:10:20.529Z,0
2019-03-12T00:11:20.809Z,0
2019-03-12T00:12:20.817Z,0
2019-03-12T00:13:21.363Z,0
2019-03-12T00:14:20.977Z,0
2019-03-12T00:15:20.891Z,0
2019-03-12T00:16:21.035Z,0
2019-03-12T00:17:20.631Z,0
2019-03-12T00:18:20.667Z,0
2019-03-12T00:19:20.943Z,0
2019-03-12T00:20:20.690Z,0
2019-03-12T00:21:21.024Z,0
2019-03-12T00:22:21.084Z,0
2019-03-12T00:23:20.998Z,0
2019-03-12T00:24:21.021Z,0
2019-03-12T00:25:20.769Z,0
2019-03-12T00:26:20.796Z,0
2019-03-12T00:27:21.320Z,0
2019-03-12T00:28:21.367Z,0
2019-03-12T00:29:21.097Z,0
2019-03-12T00:30:20.857Z,0
2019-03-12T00:31:20.876Z,0
2019-03-12T00:32:21.157Z,0
2019-03-12T00:33:21.189Z,0
2019-03-12T00:34:21.209Z,0
2019-03-12T00:35:20.933Z,0
2019-03-12T00:36:21.007Z,0
2019-03-12T00:37:20.985Z,0
2019-03-12T00:38:21.256Z,0
2019-03-12T00:39:21.013Z,0
2019-03-12T00:40:21.546Z,0
2019-03-12T00:41:22.470Z,0
2019-03-12T00:42:21.327Z,0
2019-03-12T00:43:20.805Z,0
2019-03-12T00:44:21.899Z,0
2019-03-12T00:45:21.107Z,0
2019-03-12T00:46:21.387Z,0
2019-03-12T00:47:21.151Z,0
2019-03-12T00:48:21.430Z,0
2019-03-12T00:49:21.546Z,0
2019-03-12T00:50:21.206Z,0
2019-03-12T00:51:21.470Z,0
2019-03-12T00:52:21.228Z,0
2019-03-12T00:53:21.241Z,0
2019-03-12T00:54:20.995Z,0
2019-03-12T00:55:22.056Z,0
2019-03-12T00:56:21.550Z,0
2019-03-12T00:57:21.843Z,0
2019-03-12T00:58:21.585Z,0
2019-03-12T00:59:21.872Z,0
2019-03-12T01:00:21.362Z,0
2019-03-12T01:01:21.371Z,0
2019-03-12T01:02:21.395Z,0
2019-03-12T01:03:21.425Z,0
2019-03-12T01:04:21.687Z,0
2019-03-12T01:05:21.438Z,0
2019-03-12T01:06:21.455Z,0
2019-03-12T01:07:21.732Z,0
2019-03-12T01:08:21.490Z,0
2019-03-12T01:09:21.536Z,0
2019-03-12T01:10:21.541Z,0
2019-03-12T01:11:21.542Z,0
2019-03-12T01:12:21.922Z,0
2019-03-12T01:13:21.599Z,0
2019-03-12T01:14:21.845Z,0
2019-03-12T01:15:21.875Z,0
2019-03-12T01:16:21.725Z,0
2019-03-12T01:17:21.391Z,0
2019-03-12T01:18:22.866Z,0
2019-03-12T01:19:21.936Z,0
2019-03-12T01:20:22.218Z,0
2019-03-12T01:21:21.973Z,0
2019-03-12T01:22:21.726Z,0
2019-03-12T01:23:21.765Z,0
2019-03-12T01:24:21.768Z,0
2019-03-12T01:25:22.037Z,0
2019-03-12T01:26:21.871Z,0
2019-03-12T01:27:22.638Z,0
2019-03-12T01:28:21.904Z,0
2019-03-12T01:29:21.838Z,0
2019-03-12T01:30:21.856Z,0
2019-03-12T01:31:21.886Z,0
2019-03-12T01:32:21.890Z,0
2019-03-12T01:33:21.989Z,0
2019-03-12T01:34:22.187Z,0
2019-03-12T01:35:22.481Z,0
2019-03-12T01:36:21.742Z,0
2019-03-12T01:37:22.231Z,0
2019-03-12T01:38:21.988Z,0
2019-03-12T01:39:21.745Z,0
2019-03-12T01:40:22.295Z,0
2019-03-12T01:41:21.779Z,0
2019-03-12T01:42:22.587Z,0
2019-03-12T01:43:22.074Z,0
2019-03-12T01:44:22.894Z,0
2019-03-12T01:45:21.879Z,0
2019-03-12T01:46:22.122Z,0
2019-03-12T01:47:22.396Z,0
2019-03-12T01:48:22.756Z,0
2019-03-12T01:49:22.439Z,0
2019-03-12T01:50:22.193Z,0
2019-03-12T01:51:22.471Z,0
2019-03-12T01:52:22.226Z,0
2019-03-12T01:53:22.780Z,0
2019-03-12T01:54:22.266Z,0
2019-03-12T01:55:22.803Z,0
2019-03-12T01:56:22.313Z,0
2019-03-12T01:57:22.067Z,0
2019-03-12T01:58:23.702Z,0
2019-03-12T01:59:22.075Z,0
2019-03-12T02:00:22.896Z,0
2019-03-12T02:01:22.899Z,0
2019-03-12T02:02:23.202Z,0
2019-03-12T02:03:22.673Z,0
2019-03-12T02:04:22.696Z,0
2019-03-12T02:05:22.980Z,0
2019-03-12T02:06:22.197Z,0
2019-03-12T02:07:22.896Z,0
2019-03-12T02:08:22.759Z,0
2019-03-12T02:09:22.797Z,0
2019-03-12T02:10:22.268Z,0
2019-03-12T02:11:22.807Z,0
2019-03-12T02:12:22.563Z,0
2019-03-12T02:13:23.097Z,0
2019-03-12T02:14:22.592Z,0
2019-03-12T02:15:23.187Z,0
2019-03-12T02:16:22.889Z,0
2019-03-12T02:17:22.647Z,0
2019-03-12T02:18:23.189Z,0
2019-03-12T02:19:22.942Z,0
2019-03-12T02:20:22.694Z,0
2019-03-12T02:21:22.711Z,0
2019-03-12T02:22:23.312Z,0
2019-03-12T02:23:22.737Z,0
2019-03-12T02:24:23.028Z,0
2019-03-12T02:25:23.303Z,0
2019-03-12T02:26:23.076Z,0
2019-03-12T02:27:23.074Z,0
2019-03-12T02:28:23.352Z,0
2019-03-12T02:29:22.851Z,0
2019-03-12T02:30:22.948Z,0
2019-03-12T02:31:23.192Z,0
2019-03-12T02:32:22.905Z,0
2019-03-12T02:33:23.314Z,0
2019-03-12T02:34:23.488Z,0
2019-03-12T02:35:23.494Z,0
2019-03-12T02:36:23.237Z,0
2019-03-12T02:37:23.526Z,0
2019-03-12T02:38:23.534Z,0
2019-03-12T02:39:23.353Z,0
2019-03-12T02:40:23.038Z,0
2019-03-12T02:41:22.793Z,0
2019-03-12T02:42:23.629Z,0
2019-03-12T02:43:23.889Z,0
2019-03-12T02:44:23.366Z,0
2019-03-12T02:45:23.397Z,0
2019-03-12T02:46:22.892Z,0
2019-03-12T02:47:23.668Z,0
2019-03-12T02:48:23.537Z,0
2019-03-12T02:49:23.458Z,0
2019-03-12T02:50:23.081Z,0
2019-03-12T02:51:23.495Z,0
2019-03-12T02:52:23.757Z,0
2019-03-12T02:53:23.512Z,0
2019-03-12T02:54:23.535Z,0
2019-03-12T02:55:24.225Z,0
2019-03-12T02:56:23.320Z,0
2019-03-12T02:57:23.310Z,0
2019-03-12T02:58:24.125Z,0
2019-03-12T02:59:23.601Z,0
2019-03-12T03:00:23.110Z,0
2019-03-12T03:01:23.647Z,0
2019-03-12T03:02:23.398Z,0
2019-03-12T03:03:23.960Z,0
2019-03-12T03:04:23.695Z,0
2019-03-12T03:05:24.423Z,0
2019-03-12T03:06:23.753Z,0
2019-03-12T03:07:23.506Z,0
2019-03-12T03:08:24.049Z,0
2019-03-12T03:09:24.056Z,0
2019-03-12T03:10:24.073Z,0
2019-03-12T03:11:23.843Z,0
2019-03-12T03:12:24.042Z,0
2019-03-12T03:13:23.900Z,0
2019-03-12T03:14:23.967Z,0
2019-03-12T03:15:24.417Z,0
2019-03-12T03:16:28.181Z,0
2019-03-12T03:17:23.918Z,0
2019-03-12T03:18:23.928Z,0
2019-03-12T03:19:23.982Z,0
2019-03-12T03:20:24.288Z,0
2019-03-12T03:21:23.467Z,0
2019-03-12T03:22:23.733Z,0
2019-03-12T03:23:24.284Z,0
2019-03-12T03:24:24.315Z,0
2019-03-12T03:25:24.333Z,0
2019-03-12T03:26:24.678Z,0
2019-03-12T03:27:24.334Z,0
2019-03-12T03:28:24.092Z,0
2019-03-12T03:29:24.099Z,0
2019-03-12T03:30:24.431Z,0
2019-03-12T03:31:24.198Z,0
2019-03-12T03:32:24.290Z,0
2019-03-12T03:33:24.502Z,0
2019-03-12T03:34:31.722Z,0
2019-03-12T03:35:24.513Z,0
2019-03-12T03:36:23.950Z,0
2019-03-12T03:37:24.524Z,0
2019-03-12T03:38:24.555Z,0
2019-03-12T03:39:24.300Z,0
2019-03-12T03:40:24.566Z,0
2019-03-12T03:41:24.326Z,0
2019-03-12T03:42:24.399Z,0
2019-03-12T03:43:24.120Z,0
2019-03-12T03:44:24.195Z,0
2019-03-12T03:45:24.150Z,0
2019-03-12T03:46:24.653Z,0
2019-03-12T03:47:28.370Z,0
2019-03-12T03:48:24.702Z,0
2019-03-12T03:49:24.449Z,0
2019-03-12T03:50:24.766Z,0
2019-03-12T03:51:24.527Z,0
2019-03-12T03:52:24.757Z,0
2019-03-12T03:53:24.537Z,0
2019-03-12T03:54:24.523Z,0
2019-03-12T03:55:24.656Z,0
2019-03-12T03:56:25.090Z,0
2019-03-12T03:57:24.443Z,0
2019-03-12T03:58:24.888Z,0
2019-03-12T03:59:24.876Z,0
2019-03-12T04:00:24.744Z,0
2019-03-12T04:01:24.365Z,0
2019-03-12T04:02:24.921Z,0
2019-03-12T04:03:24.146Z,0
2019-03-12T04:04:24.420Z,0
2019-03-12T04:05:24.705Z,0
2019-03-12T04:06:25.004Z,0
2019-03-12T04:07:24.468Z,0
2019-03-12T04:08:24.807Z,0
2019-03-12T04:09:24.511Z,0
2019-03-12T04:10:25.020Z,0
2019-03-12T04:11:25.318Z,0
2019-03-12T04:12:25.130Z,0
2019-03-12T04:13:25.212Z,0
2019-03-12T04:14:25.101Z,0
2019-03-12T04:15:24.639Z,0
2019-03-12T04:16:24.879Z,0
2019-03-12T04:17:24.910Z,0
2019-03-12T04:18:25.211Z,0
2019-03-12T04:19:24.948Z,0
2019-03-12T04:20:24.960Z,0
2019-03-12T04:21:24.965Z,0
2019-03-12T04:22:25.014Z,0
2019-03-12T04:23:25.874Z,0
2019-03-12T04:24:24.744Z,0
2019-03-12T04:25:25.024Z,0
2019-03-12T04:26:25.367Z,0
2019-03-12T04:27:25.083Z,0
2019-03-12T04:28:24.817Z,0
2019-03-12T04:29:25.111Z,0
2019-03-12T04:30:25.117Z,0
2019-03-12T04:31:25.120Z,0
2019-03-12T04:32:25.445Z,0
2019-03-12T04:33:24.900Z,0
2019-03-12T04:34:25.166Z,0
2019-03-12T04:35:25.451Z,0
2019-03-12T04:36:25.761Z,0
2019-03-12T04:37:25.214Z,0
2019-03-12T04:38:25.485Z,0
2019-03-12T04:39:25.252Z,0
2019-03-12T04:40:24.738Z,0
2019-03-12T04:41:25.273Z,0
2019-03-12T04:42:25.290Z,0
2019-03-12T04:43:25.303Z,0
2019-03-12T04:44:25.058Z,0
2019-03-12T04:45:25.350Z,0
2019-03-12T04:46:25.355Z,0
2019-03-12T04:47:25.376Z,0
2019-03-12T04:48:25.660Z,0
2019-03-12T04:49:25.155Z,0
2019-03-12T04:50:25.691Z,0
2019-03-12T04:51:25.707Z,0
2019-03-12T04:52:25.557Z,0
2019-03-12T04:53:25.227Z,0
2019-03-12T04:54:25.481Z,0
2019-03-12T04:55:25.792Z,0
2019-03-12T04:56:25.258Z,0
2019-03-12T04:57:25.798Z,0
2019-03-12T04:58:25.559Z,0
2019-03-12T04:59:25.043Z,0
2019-03-12T05:00:25.858Z,0
2019-03-12T05:01:25.621Z,0
2019-03-12T05:02:25.889Z,0
2019-03-12T05:03:25.634Z,0
2019-03-12T05:04:26.177Z,0
2019-03-12T05:05:25.696Z,0
2019-03-12T05:06:28.680Z,0
2019-03-12T05:07:25.439Z,0
2019-03-12T05:08:25.457Z,0
2019-03-12T05:09:25.492Z,0
2019-03-12T05:10:25.751Z,0
2019-03-12T05:11:25.789Z,0
2019-03-12T05:12:25.783Z,0
2019-03-12T05:13:25.801Z,0
2019-03-12T05:14:26.075Z,0
2019-03-12T05:15:26.109Z,0
2019-03-12T05:16:25.958Z,0
2019-03-12T05:17:25.878Z,0
2019-03-12T05:18:25.637Z,0
2019-03-12T05:19:25.454Z,0
2019-03-12T05:20:26.180Z,0
2019-03-12T05:21:25.930Z,0
2019-03-12T05:22:25.694Z,0
2019-03-12T05:23:25.970Z,0
2019-03-12T05:24:25.975Z,0
2019-03-12T05:25:26.003Z,0
2019-03-12T05:26:26.003Z,0
2019-03-12T05:27:27.207Z,0
2019-03-12T05:28:25.784Z,0
2019-03-12T05:29:25.529Z,0
2019-03-12T05:30:26.240Z,0
2019-03-12T05:31:25.881Z,0
2019-03-12T05:32:26.107Z,0
2019-03-12T05:33:25.873Z,0
2019-03-12T05:34:28.247Z,0
2019-03-12T05:35:26.261Z,0
2019-03-12T05:36:25.654Z,0
2019-03-12T05:37:26.255Z,0
2019-03-12T05:38:26.468Z,0
2019-03-12T05:39:26.224Z,0
2019-03-12T05:40:25.713Z,0
2019-03-12T05:41:26.776Z,0
2019-03-12T05:42:26.556Z,0
2019-03-12T05:43:26.130Z,0
2019-03-12T05:44:26.367Z,0
2019-03-12T05:45:26.325Z,0
2019-03-12T05:46:26.603Z,0
2019-03-12T05:47:26.617Z,0
2019-03-12T05:48:26.521Z,0
2019-03-12T05:49:26.387Z,0
2019-03-12T05:50:26.166Z,0
2019-03-12T05:51:26.209Z,0
2019-03-12T05:52:26.434Z,0
2019-03-12T05:53:26.727Z,0
2019-03-12T05:54:26.209Z,0
2019-03-12T05:55:26.221Z,0
2019-03-12T05:56:26.525Z,0
2019-03-12T05:57:26.258Z,0
2019-03-12T05:58:26.274Z,0
2019-03-12T05:59:26.549Z,0
2019-03-12T06:00:26.112Z,0
2019-03-12T06:01:26.324Z,0
2019-03-12T06:02:26.863Z,0
2019-03-12T06:03:26.369Z,0
2019-03-12T06:04:26.634Z,0
2019-03-12T06:05:26.659Z,0
2019-03-12T06:06:26.939Z,0
2019-03-12T06:07:26.423Z,0
2019-03-12T06:08:26.440Z,0
2019-03-12T06:09:38.420Z,0
2019-03-12T06:10:27.263Z,5
2019-03-12T06:11:26.577Z,5
2019-03-12T06:12:26.776Z,5
2019-03-12T06:13:26.252Z,5
2019-03-12T06:14:26.550Z,5
2019-03-12T06:15:26.559Z,5
2019-03-12T06:16:26.829Z,5
2019-03-12T06:17:26.580Z,5
2019-03-12T06:18:26.600Z,5
2019-03-12T06:19:26.875Z,5
2019-03-12T06:20:26.916Z,5
2019-03-12T06:21:26.389Z,5
2019-03-12T06:22:26.720Z,5
2019-03-12T06:23:26.950Z,5
2019-03-12T06:24:26.704Z,5
2019-03-12T06:25:27.099Z,5
2019-03-12T06:26:26.732Z,10
2019-03-12T06:27:27.019Z,10
2019-03-12T06:28:26.765Z,10
2019-03-12T06:29:26.786Z,10
2019-03-12T06:30:29.993Z,10
2019-03-12T06:31:27.089Z,10
2019-03-12T06:32:27.396Z,10
2019-03-12T06:33:31.421Z,10
2019-03-12T06:34:26.860Z,10
2019-03-12T06:35:27.139Z,10
2019-03-12T06:36:27.154Z,10
2019-03-12T06:37:26.909Z,15
2019-03-12T06:38:26.928Z,15
2019-03-12T06:39:26.698Z,15
2019-03-12T06:40:27.748Z,15
2019-03-12T06:41:26.973Z,15
2019-03-12T06:42:26.734Z,15
2019-03-12T06:43:27.269Z,15
2019-03-12T06:44:27.549Z,15
2019-03-12T06:45:26.876Z,15
2019-03-12T06:46:27.086Z,15
2019-03-12T06:47:27.336Z,20
2019-03-12T06:48:27.090Z,20
2019-03-12T06:49:27.893Z,20
2019-03-12T06:50:27.432Z,15
2019-03-12T06:51:27.400Z,15
2019-03-12T06:52:27.172Z,15
2019-03-12T06:53:27.702Z,15
2019-03-12T06:54:27.187Z,15
2019-03-12T06:55:27.467Z,15
2019-03-12T06:56:27.222Z,15
2019-03-12T06:57:27.252Z,15
2019-03-12T06:58:27.256Z,15
2019-03-12T06:59:28.058Z,15
2019-03-12T07:00:27.546Z,15
2019-03-12T07:01:27.303Z,15
2019-03-12T07:02:27.584Z,20
2019-03-12T07:03:27.336Z,20
2019-03-12T07:04:27.357Z,20
2019-03-12T07:05:27.367Z,20
2019-03-12T07:06:27.389Z,20
2019-03-12T07:07:27.138Z,20
2019-03-12T07:08:27.870Z,15
2019-03-12T07:09:27.708Z,15
2019-03-12T07:10:27.978Z,15
2019-03-12T07:11:27.234Z,15
2019-03-12T07:12:28.271Z,15
2019-03-12T07:13:28.027Z,15
2019-03-12T07:14:29.516Z,15
2019-03-12T07:15:28.066Z,15
2019-03-12T07:16:27.993Z,20
2019-03-12T07:17:28.188Z,20
2019-03-12T07:18:27.917Z,20
2019-03-12T07:19:27.912Z,20
2019-03-12T07:20:27.884Z,20
2019-03-12T07:21:28.421Z,20
2019-03-12T07:22:27.986Z,20
2019-03-12T07:23:27.929Z,20
2019-03-12T07:24:28.208Z,20
2019-03-12T07:25:28.506Z,20
2019-03-12T07:26:28.241Z,25
2019-03-12T07:27:27.728Z,25
2019-03-12T07:28:28.031Z,25
2019-03-12T07:29:27.768Z,25
2019-03-12T07:30:27.786Z,25
2019-03-12T07:31:28.637Z,25
2019-03-12T07:32:28.084Z,30
2019-03-12T07:33:28.397Z,30
2019-03-12T07:34:40.793Z,35
2019-03-12T07:35:29.576Z,35
2019-03-12T07:36:27.878Z,35
2019-03-12T07:37:27.902Z,40
2019-03-12T07:38:28.191Z,40
2019-03-12T07:39:28.203Z,45
2019-03-12T07:40:29.724Z,45
2019-03-12T07:41:40.706Z,45
2019-03-12T07:42:28.248Z,45
2019-03-12T07:43:27.999Z,50
2019-03-12T07:44:28.023Z,50
2019-03-12T07:45:28.325Z,50
2019-03-12T07:46:28.374Z,50
2019-03-12T07:47:41.911Z,50
2019-03-12T07:48:28.096Z,55
2019-03-12T07:49:28.095Z,55
2019-03-12T07:50:28.641Z,55
2019-03-12T07:51:28.130Z,55
2019-03-12T07:52:28.958Z,55
2019-03-12T07:53:28.693Z,55
2019-03-12T07:54:28.708Z,50
2019-03-12T07:55:31.905Z,45
2019-03-12T07:56:28.215Z,40
2019-03-12T07:57:27.968Z,40
2019-03-12T07:58:42.120Z,40
2019-03-12T07:59:28.269Z,45
2019-03-12T08:00:28.559Z,45
2019-03-12T08:01:29.735Z,50
2019-03-12T08:02:28.610Z,50
2019-03-12T08:03:28.869Z,50
2019-03-12T08:04:28.375Z,50
2019-03-12T08:05:30.768Z,55
2019-03-12T08:06:28.124Z,55
2019-03-12T08:07:28.679Z,55
2019-03-12T08:08:28.687Z,55
2019-03-12T08:09:28.755Z,50
2019-03-12T08:10:28.454Z,55
2019-03-12T08:11:28.468Z,45
2019-03-12T08:12:29.039Z,45
2019-03-12T08:13:28.763Z,45
2019-03-12T08:14:31.919Z,45
2019-03-12T08:15:32.648Z,45
2019-03-12T08:16:29.077Z,45
2019-03-12T08:17:28.634Z,50
2019-03-12T08:18:28.580Z,50
2019-03-12T08:19:29.143Z,50
2019-03-12T08:20:28.454Z,55
2019-03-12T08:21:31.631Z,55
2019-03-12T08:22:28.680Z,55
2019-03-12T08:23:28.942Z,60
2019-03-12T08:24:28.961Z,60
2019-03-12T08:25:29.231Z,60
2019-03-12T08:26:28.725Z,65
2019-03-12T08:27:30.851Z,65
2019-03-12T08:28:29.344Z,65
2019-03-12T08:29:29.298Z,70
2019-03-12T08:30:29.581Z,70
2019-03-12T08:31:29.072Z,65
2019-03-12T08:32:31.051Z,65
2019-03-12T08:33:28.878Z,65
2019-03-12T08:34:28.864Z,65
2019-03-12T08:35:28.877Z,70
2019-03-12T08:36:29.157Z,65
2019-03-12T08:37:29.449Z,65
2019-03-12T08:38:29.458Z,60
2019-03-12T08:39:29.209Z,60
2019-03-12T08:40:29.229Z,60
2019-03-12T08:41:28.729Z,60
2019-03-12T08:42:29.010Z,60
2019-03-12T08:43:28.746Z,60
2019-03-12T08:44:31.287Z,60
2019-03-12T08:45:29.152Z,60
2019-03-12T08:46:31.014Z,60
2019-03-12T08:47:29.616Z,60
2019-03-12T08:48:29.149Z,65
2019-03-12T08:49:29.657Z,65
2019-03-12T08:50:29.668Z,65
2019-03-12T08:51:29.422Z,65
2019-03-12T08:52:29.176Z,65
2019-03-12T08:53:29.711Z,65
2019-03-12T08:54:30.324Z,65
2019-03-12T08:55:29.488Z,70
2019-03-12T08:56:29.239Z,70
2019-03-12T08:57:29.525Z,70
2019-03-12T08:58:29.542Z,70
2019-03-12T08:59:29.024Z,70
2019-03-12T09:00:31.004Z,70
2019-03-12T09:01:29.592Z,70
2019-03-12T09:02:29.351Z,70
2019-03-12T09:03:29.362Z,65
2019-03-12T09:04:29.904Z,65
2019-03-12T09:05:29.507Z,60
2019-03-12T09:06:29.417Z,60
2019-03-12T09:07:29.953Z,60
2019-03-12T09:08:30.069Z,60
2019-03-12T09:09:29.990Z,60
2019-03-12T09:10:29.743Z,60
2019-03-12T09:11:29.756Z,60
2019-03-12T09:12:29.773Z,55
2019-03-12T09:13:29.568Z,55
2019-03-12T09:14:29.573Z,55
2019-03-12T09:15:29.834Z,55
2019-03-12T09:16:29.864Z,55
2019-03-12T09:17:29.347Z,55
2019-03-12T09:18:30.416Z,50
2019-03-12T09:19:30.174Z,50
2019-03-12T09:20:29.944Z,55
2019-03-12T09:21:30.194Z,55
2019-03-12T09:22:29.692Z,60
2019-03-12T09:23:29.451Z,60
2019-03-12T09:24:29.721Z,65
2019-03-12T09:25:29.738Z,65
2019-03-12T09:26:30.284Z,70
2019-03-12T09:27:29.784Z,75
2019-03-12T09:28:30.075Z,75
2019-03-12T09:29:30.334Z,80
2019-03-12T09:30:30.088Z,80
2019-03-12T09:31:29.888Z,75
2019-03-12T09:32:30.141Z,70
2019-03-12T09:33:30.145Z,70
2019-03-12T09:34:29.901Z,70
2019-03-12T09:35:30.173Z,70
2019-03-12T09:36:29.938Z,70
2019-03-12T09:37:29.948Z,70
2019-03-12T09:38:30.494Z,70
2019-03-12T09:39:30.243Z,70
2019-03-12T09:40:30.038Z,70
2019-03-12T09:41:30.644Z,70
2019-03-12T09:42:30.298Z,70
2019-03-12T09:43:30.053Z,70
2019-03-12T09:44:30.336Z,75
2019-03-12T09:45:30.876Z,75
2019-03-12T09:46:30.163Z,75
2019-03-12T09:47:30.119Z,75
2019-03-12T09:48:30.159Z,75
2019-03-12T09:49:32.058Z,75
2019-03-12T09:50:30.175Z,75
2019-03-12T09:51:30.457Z,70
2019-03-12T09:52:30.738Z,70
2019-03-12T09:53:30.496Z,70
2019-03-12T09:54:30.248Z,70
2019-03-12T09:55:30.530Z,70
2019-03-12T09:56:30.546Z,70
2019-03-12T09:57:30.369Z,70
2019-03-12T09:58:30.322Z,70
2019-03-12T09:59:30.864Z,70
2019-03-12T10:00:30.349Z,75
2019-03-12T10:01:30.371Z,75
2019-03-12T10:02:30.132Z,75
2019-03-12T10:03:30.670Z,75
2019-03-12T10:04:31.024Z,75
2019-03-12T10:05:30.705Z,75
2019-03-12T10:06:30.983Z,75
2019-03-12T10:07:30.212Z,75
2019-03-12T10:08:31.018Z,75
2019-03-12T10:09:30.400Z,75
2019-03-12T10:10:30.805Z,75
2019-03-12T10:11:30.911Z,75
2019-03-12T10:12:30.831Z,75
2019-03-12T10:13:30.583Z,80
2019-03-12T10:14:30.634Z,80
2019-03-12T10:15:30.627Z,80
2019-03-12T10:16:30.895Z,80
2019-03-12T10:17:31.184Z,75
2019-03-12T10:18:30.953Z,75
2019-03-12T10:19:30.431Z,75
2019-03-12T10:20:30.965Z,80
2019-03-12T10:21:30.724Z,80
2019-03-12T10:22:31.017Z,80
2019-03-12T10:23:31.285Z,80
2019-03-12T10:24:33.487Z,80
2019-03-12T10:25:30.531Z,80
2019-03-12T10:26:31.405Z,85
2019-03-12T10:27:30.875Z,90
2019-03-12T10:28:30.853Z,90
2019-03-12T10:29:31.660Z,90
2019-03-12T10:30:31.420Z,85
2019-03-12T10:31:31.163Z,85
2019-03-12T10:32:31.178Z,85
2019-03-12T10:33:30.936Z,85
2019-03-12T10:34:39.232Z,85
2019-03-12T10:35:30.974Z,85
2019-03-12T10:36:33.241Z,85
2019-03-12T10:37:31.547Z,85
2019-03-12T10:38:31.296Z,85
2019-03-12T10:39:31.035Z,85
2019-03-12T10:40:31.604Z,85
2019-03-12T10:41:31.338Z,85
2019-03-12T10:42:30.834Z,90
2019-03-12T10:43:31.380Z,85
2019-03-12T10:44:31.669Z,90
2019-03-12T10:45:31.055Z,90
2019-03-12T10:46:31.251Z,90
2019-03-12T10:47:31.183Z,90
2019-03-12T10:48:31.584Z,90
2019-03-12T10:49:44.316Z,90
2019-03-12T10:50:31.531Z,95
2019-03-12T10:51:31.324Z,95
2019-03-12T10:52:31.012Z,95
2019-03-12T10:53:31.557Z,95
2019-03-12T10:54:31.837Z,95
2019-03-12T10:55:31.072Z,95
2019-03-12T10:56:31.351Z,95
2019-03-12T10:57:31.370Z,95
2019-03-12T10:58:31.651Z,95
2019-03-12T10:59:31.136Z,95
2019-03-12T11:00:31.951Z,95
2019-03-12T11:01:31.706Z,95
2019-03-12T11:02:31.725Z,95
2019-03-12T11:03:31.474Z,95
2019-03-12T11:04:32.033Z,95
2019-03-12T11:05:44.880Z,95
2019-03-12T11:06:31.545Z,100
2019-03-12T11:07:32.077Z,100
2019-03-12T11:08:31.845Z,100
2019-03-12T11:09:32.164Z,100
2019-03-12T11:10:31.765Z,100
2019-03-12T11:11:31.634Z,100
2019-03-12T11:12:31.645Z,100
2019-03-12T11:13:31.942Z,100
2019-03-12T11:14:31.429Z,100
2019-03-12T11:15:31.711Z,100
2019-03-12T11:16:31.977Z,100
2019-03-12T11:17:32.523Z,95
2019-03-12T11:18:31.774Z,95
2019-03-12T11:19:31.509Z,95
2019-03-12T11:20:31.823Z,95
2019-03-12T11:21:32.334Z,90
2019-03-12T11:22:31.847Z,95
2019-03-12T11:23:32.116Z,95
2019-03-12T11:24:32.255Z,90
2019-03-12T11:25:36.962Z,95
2019-03-12T11:26:32.687Z,95
2019-03-12T11:27:32.184Z,100
2019-03-12T11:28:33.349Z,100
2019-03-12T11:29:32.214Z,100
2019-03-12T11:30:32.333Z,100
2019-03-12T11:31:32.382Z,90
2019-03-12T11:32:31.752Z,80
2019-03-12T11:33:32.829Z,85
2019-03-12T11:34:32.310Z,80
2019-03-12T11:35:42.826Z,85
2019-03-12T11:36:32.876Z,80
2019-03-12T11:37:32.400Z,85
2019-03-12T11:38:33.392Z,85
2019-03-12T11:39:32.943Z,85
2019-03-12T11:40:37.532Z,80
2019-03-12T11:41:32.814Z,75
2019-03-12T11:42:32.533Z,80
2019-03-12T11:43:32.280Z,85
2019-03-12T11:44:32.849Z,80
2019-03-12T11:45:45.475Z,80
2019-03-12T11:46:45.430Z,75
2019-03-12T11:47:32.522Z,75
2019-03-12T11:48:32.595Z,75
2019-03-12T11:49:32.425Z,75
2019-03-12T11:50:33.593Z,75
2019-03-12T11:51:32.474Z,75
2019-03-12T11:52:33.223Z,80
2019-03-12T11:53:32.994Z,80
2019-03-12T11:54:33.476Z,80
2019-03-12T11:55:32.632Z,80
2019-03-12T11:56:33.063Z,80
2019-03-12T11:57:32.864Z,75
2019-03-12T11:58:32.932Z,80
2019-03-12T11:59:33.004Z,80
2019-03-12T12:00:33.497Z,85
2019-03-12T12:01:32.548Z,90
2019-03-12T12:02:32.569Z,90
2019-03-12T12:03:32.585Z,90
2019-03-12T12:04:32.616Z,90
2019-03-12T12:05:33.261Z,90
2019-03-12T12:06:32.767Z,90
2019-03-12T12:07:32.734Z,90
2019-03-12T12:08:32.962Z,90
2019-03-12T12:09:32.749Z,90
2019-03-12T12:10:32.935Z,90
2019-03-12T12:11:32.997Z,90
2019-03-12T12:12:32.754Z,95
2019-03-12T12:13:33.367Z,95
2019-03-12T12:14:33.058Z,95
2019-03-12T12:15:33.342Z,90
2019-03-12T12:16:33.089Z,90
2019-03-12T12:17:33.108Z,85
2019-03-12T12:18:32.868Z,85
2019-03-12T12:19:33.141Z,85
2019-03-12T12:20:39.247Z,90
2019-03-12T12:21:33.442Z,90
2019-03-12T12:22:33.463Z,90
2019-03-12T12:23:33.218Z,95
2019-03-12T12:24:36.154Z,95
2019-03-12T12:25:32.991Z,95
2019-03-12T12:26:33.534Z,95
2019-03-12T12:27:32.773Z,100
2019-03-12T12:28:33.046Z,100
2019-03-12T12:29:33.062Z,100
2019-03-12T12:30:33.342Z,100
2019-03-12T12:31:33.362Z,100
2019-03-12T12:32:33.643Z,100
2019-03-12T12:33:33.409Z,100
2019-03-12T12:34:33.429Z,100
2019-03-12T12:35:33.444Z,100
2019-03-12T12:36:33.201Z,95
2019-03-12T12:37:33.530Z,95
2019-03-12T12:38:33.753Z,95
2019-03-12T12:39:33.520Z,95
2019-03-12T12:40:33.004Z,95
2019-03-12T12:41:33.919Z,100
2019-03-12T12:42:36.049Z,95
2019-03-12T12:43:33.963Z,95
2019-03-12T12:44:33.353Z,90
2019-03-12T12:45:33.706Z,90
2019-03-12T12:46:33.647Z,90
2019-03-12T12:47:33.930Z,85
2019-03-12T12:48:33.951Z,85
2019-03-12T12:49:33.439Z,80
2019-03-12T12:50:33.758Z,80
2019-03-12T12:51:34.005Z,80
2019-03-12T12:52:33.493Z,85
2019-03-12T12:53:33.535Z,85
2019-03-12T12:54:33.286Z,90
2019-03-12T12:55:33.823Z,90
2019-03-12T12:56:33.657Z,90
2019-03-12T12:57:33.855Z,90
2019-03-12T12:58:33.613Z,85
2019-03-12T12:59:34.163Z,90
2019-03-12T13:00:33.653Z,90
2019-03-12T13:01:33.435Z,90
2019-03-12T13:02:33.997Z,90
2019-03-12T13:03:33.442Z,90
2019-03-12T13:04:33.985Z,90
2019-03-12T13:05:34.265Z,90
2019-03-12T13:06:34.023Z,85
2019-03-12T13:07:33.789Z,85
2019-03-12T13:08:34.329Z,85
2019-03-12T13:09:34.080Z,80
2019-03-12T13:10:34.368Z,75
2019-03-12T13:11:33.856Z,75
2019-03-12T13:12:34.403Z,75
2019-03-12T13:13:33.893Z,75
2019-03-12T13:14:45.947Z,75
2019-03-12T13:15:34.458Z,80
2019-03-12T13:16:35.330Z,75
2019-03-12T13:17:33.716Z,75
2019-03-12T13:18:34.777Z,75
2019-03-12T13:19:34.428Z,70
2019-03-12T13:20:34.040Z,70
2019-03-12T13:21:34.575Z,70
2019-03-12T13:22:34.325Z,75
2019-03-12T13:23:36.094Z,75
2019-03-12T13:24:34.365Z,75
2019-03-12T13:25:34.483Z,75
2019-03-12T13:26:34.140Z,80
2019-03-12T13:27:46.479Z,85
2019-03-12T13:28:34.437Z,85
2019-03-12T13:29:34.204Z,85
2019-03-12T13:30:34.290Z,90
2019-03-12T13:31:34.593Z,90
2019-03-12T13:32:34.911Z,90
2019-03-12T13:33:34.333Z,85
2019-03-12T13:34:34.551Z,85
2019-03-12T13:35:34.307Z,80
2019-03-12T13:36:34.328Z,80
2019-03-12T13:37:34.620Z,75
2019-03-12T13:38:51.005Z,70
2019-03-12T13:39:35.037Z,65
2019-03-12T13:40:34.847Z,65
2019-03-12T13:41:34.783Z,65
2019-03-12T13:42:34.598Z,65
2019-03-12T13:43:34.996Z,70
2019-03-12T13:44:34.991Z,70
2019-03-12T13:45:36.091Z,70
2019-03-12T13:46:35.186Z,70
2019-03-12T13:47:38.320Z,70
2019-03-12T13:48:35.047Z,75
2019-03-12T13:49:34.960Z,75
2019-03-12T13:50:35.461Z,75
2019-03-12T13:51:35.216Z,75
2019-03-12T13:52:35.342Z,70
2019-03-12T13:53:35.121Z,70
2019-03-12T13:54:35.114Z,70
2019-03-12T13:55:35.328Z,65
2019-03-12T13:56:35.165Z,60
2019-03-12T13:57:34.464Z,60
2019-03-12T13:58:35.267Z,60
2019-03-12T13:59:36.961Z,60
2019-03-12T14:00:37.704Z,70
2019-03-12T14:01:34.795Z,70
2019-03-12T14:02:35.086Z,80
2019-03-12T14:03:35.631Z,85
2019-03-12T14:04:35.196Z,90
2019-03-12T14:05:35.447Z,85
2019-03-12T14:06:37.546Z,85
2019-03-12T14:07:35.174Z,80
2019-03-12T14:08:34.935Z,85
2019-03-12T14:09:35.485Z,85
2019-03-12T14:10:34.974Z,90
2019-03-12T14:11:34.996Z,95
2019-03-12T14:12:35.540Z,100
2019-03-12T14:13:35.606Z,100
2019-03-12T14:14:35.048Z,95
2019-03-12T14:15:34.808Z,95
2019-03-12T14:16:35.605Z,90
2019-03-12T14:17:35.698Z,95
2019-03-12T14:18:34.865Z,95
2019-03-12T14:19:35.145Z,95
2019-03-12T14:20:35.167Z,95
2019-03-12T14:21:35.443Z,95
2019-03-12T14:22:35.530Z,95
2019-03-12T14:23:36.122Z,90
2019-03-12T14:24:35.770Z,85
2019-03-12T14:25:35.260Z,80
2019-03-12T14:26:35.279Z,80
2019-03-12T14:27:35.555Z,80
2019-03-12T14:28:35.770Z,80